createdAt,value
2023-05-22T00:01:08.354Z,20.08
2023-05-22T00:03:39.413Z,20.08
2023-05-22T00:06:20.976Z,19.96
2023-05-22T00:08:51.202Z,19.79
2023-05-22T00:11:21.398Z,19.90
2023-05-22T00:13:54.591Z,19.91
2023-05-22T00:16:28.908Z,19.78
2023-05-22T00:19:00.385Z,19.95
2023-05-22T00:21:29.865Z,19.81
2023-05-22T00:24:03.889Z,19.58
2023-05-22T00:26:41.082Z,19.60
2023-05-22T00:29:10.893Z,19.65
2023-05-22T00:31:43.332Z,19.55
2023-05-22T00:34:20.299Z,19.44
2023-05-22T00:36:49.278Z,19.46
2023-05-22T00:39:21.250Z,19.62
2023-05-22T00:41:50.411Z,19.75
2023-05-22T00:44:19.971Z,19.83
2023-05-22T00:46:55.040Z,19.73
2023-05-22T00:49:29.353Z,19.68
2023-05-22T00:52:01.138Z,19.48
2023-05-22T00:54:31.975Z,19.57
2023-05-22T00:57:01.747Z,19.49
2023-05-22T00:59:47.935Z,19.25
2023-05-22T01:02:21.022Z,19.40
2023-05-22T01:04:50.322Z,19.36
2023-05-22T01:07:19.901Z,19.40
2023-05-22T01:09:48.331Z,19.12
2023-05-22T01:12:22.075Z,19.18
2023-05-22T01:15:02.813Z,18.98
2023-05-22T01:17:38.204Z,19.14
2023-05-22T01:20:24.826Z,19.04
2023-05-22T01:23:59.648Z,18.94
2023-05-22T01:26:46.960Z,18.93
2023-05-22T01:29:46.838Z,18.89
2023-05-22T01:32:25.142Z,19.01
2023-05-22T01:34:59.353Z,19.12
2023-05-22T01:37:31.264Z,18.99
2023-05-22T01:40:01.779Z,19.19
2023-05-22T01:42:31.659Z,19.08
2023-05-22T01:45:02.371Z,19.15
2023-05-22T01:47:51.686Z,18.76
2023-05-22T01:50:21.194Z,19.17
2023-05-22T01:53:10.128Z,19.14
2023-05-22T01:55:45.605Z,18.95
2023-05-22T01:58:25.296Z,19.05
2023-05-22T02:00:58.844Z,18.91
2023-05-22T02:03:33.604Z,18.77
2023-05-22T02:06:06.511Z,18.86
2023-05-22T02:08:35.371Z,18.74
2023-05-22T02:11:06.730Z,18.86
2023-05-22T02:13:38.539Z,18.74
2023-05-22T02:16:16.297Z,18.59
2023-05-22T02:19:03.786Z,18.58
2023-05-22T02:21:34.650Z,18.57
2023-05-22T02:24:07.413Z,18.84
2023-05-22T02:26:42.260Z,18.79
2023-05-22T02:29:13.385Z,18.79
2023-05-22T02:31:47.700Z,18.64
2023-05-22T02:34:31.707Z,18.61
2023-05-22T02:37:03.725Z,18.60
2023-05-22T02:39:36.445Z,18.78
2023-05-22T02:42:08.116Z,18.61
2023-05-22T02:44:37.559Z,18.65
2023-05-22T02:47:10.140Z,18.58
2023-05-22T02:49:40.824Z,18.55
2023-05-22T02:52:09.597Z,18.37
2023-05-22T02:54:39.145Z,18.47
2023-05-22T02:57:11.435Z,18.25
2023-05-22T02:59:42.634Z,18.26
2023-05-22T03:02:19.534Z,18.26
2023-05-22T03:04:54.379Z,18.31
2023-05-22T03:07:24.618Z,18.23
2023-05-22T03:09:56.273Z,18.38
2023-05-22T03:12:26.264Z,18.21
2023-05-22T03:14:56.489Z,18.48
2023-05-22T03:17:26.058Z,18.39
2023-05-22T03:19:58.303Z,18.19
2023-05-22T03:22:30.234Z,18.20
2023-05-22T03:25:00.888Z,18.25
2023-05-22T03:27:31.516Z,18.11
2023-05-22T03:30:02.581Z,18.26
2023-05-22T03:32:37.155Z,18.37
2023-05-22T03:35:15.388Z,18.16
2023-05-22T03:37:44.926Z,18.09
2023-05-22T03:40:18.368Z,18.02
2023-05-22T03:42:50.066Z,17.89
2023-05-22T03:45:27.742Z,17.94
2023-05-22T03:48:01.493Z,17.88
2023-05-22T03:50:35.661Z,18.14
2023-05-22T03:53:05.956Z,17.93
2023-05-22T03:55:36.638Z,18.04
2023-05-22T03:58:14.700Z,17.95
2023-05-22T04:00:52.349Z,17.79
2023-05-22T04:03:28.791Z,17.92
2023-05-22T04:06:03.985Z,18.07
2023-05-22T04:08:34.826Z,18.13
2023-05-22T04:11:05.510Z,18.35
2023-05-22T04:13:34.443Z,18.18
2023-05-22T04:16:08.491Z,18.27
2023-05-22T04:18:45.387Z,18.40
2023-05-22T04:21:19.138Z,18.31
2023-05-22T04:23:51.191Z,18.15
2023-05-22T04:26:22.643Z,18.24
2023-05-22T04:28:52.446Z,18.32
2023-05-22T04:31:24.214Z,18.45
2023-05-22T04:34:04.851Z,18.38
2023-05-22T04:36:38.952Z,18.50
2023-05-22T04:39:08.163Z,18.41
2023-05-22T04:41:39.139Z,18.35
2023-05-22T04:44:09.846Z,18.67
2023-05-22T04:46:41.170Z,18.58
2023-05-22T04:49:19.917Z,19.44
2023-05-22T04:51:57.001Z,18.74
2023-05-22T04:54:26.520Z,18.71
2023-05-22T04:56:58.901Z,18.66
2023-05-22T04:59:29.165Z,18.93
2023-05-22T05:01:58.079Z,18.90
2023-05-22T05:04:34.856Z,19.05
2023-05-22T05:07:06.592Z,18.80
2023-05-22T05:09:38.029Z,18.78
2023-05-22T05:12:08.116Z,19.14
2023-05-22T05:14:41.604Z,18.91
2023-05-22T05:17:19.316Z,18.98
2023-05-22T05:19:59.919Z,19.08
2023-05-22T05:22:42.764Z,19.09
2023-05-22T05:25:20.535Z,18.92
2023-05-22T05:27:59.209Z,19.03
2023-05-22T05:30:38.660Z,19.25
2023-05-22T05:33:17.482Z,19.28
2023-05-22T05:36:28.662Z,19.36
2023-05-22T05:39:01.380Z,19.31
2023-05-22T05:41:38.415Z,19.44
2023-05-22T05:44:13.759Z,19.49
2023-05-22T05:46:48.286Z,19.63
2023-05-22T05:49:24.960Z,19.90
2023-05-22T05:52:05.513Z,19.58
2023-05-22T05:54:39.782Z,19.78
2023-05-22T05:57:19.322Z,19.95
2023-05-22T05:59:50.550Z,19.82
2023-05-22T06:02:44.161Z,20.02
2023-05-22T06:05:48.106Z,20.00
2023-05-22T06:08:44.232Z,20.00
2023-05-22T06:11:23.757Z,20.02
2023-05-22T06:13:59.771Z,20.04
2023-05-22T06:16:30.130Z,20.15
2023-05-22T06:19:10.774Z,20.18
2023-05-22T06:21:45.244Z,20.30
2023-05-22T06:24:18.735Z,20.42
2023-05-22T06:26:53.302Z,20.44
2023-05-22T06:29:22.964Z,20.54
2023-05-22T06:31:55.769Z,20.69
2023-05-22T06:34:28.098Z,20.66
2023-05-22T06:37:06.688Z,20.63
2023-05-22T06:39:46.123Z,20.75
2023-05-22T06:42:34.142Z,20.86
2023-05-22T06:45:23.859Z,21.00
2023-05-22T06:48:12.124Z,21.02
2023-05-22T06:51:02.130Z,21.01
2023-05-22T06:53:46.929Z,21.10
2023-05-22T06:56:19.897Z,21.22
2023-05-22T06:59:06.569Z,21.05
2023-05-22T07:01:57.082Z,21.21
2023-05-22T07:04:53.735Z,21.21
2023-05-22T07:07:54.742Z,21.32
2023-05-22T07:10:27.829Z,21.50
2023-05-22T07:13:06.919Z,21.54
2023-05-22T07:15:41.145Z,21.52
2023-05-22T07:18:10.377Z,21.60
2023-05-22T07:20:45.608Z,21.67
2023-05-22T07:23:20.144Z,21.60
2023-05-22T07:25:58.735Z,21.85
2023-05-22T07:28:36.767Z,22.04
2023-05-22T07:31:19.152Z,22.13
2023-05-22T07:33:52.228Z,22.18
2023-05-22T07:36:23.905Z,22.21
2023-05-22T07:38:55.523Z,22.26
2023-05-22T07:41:39.678Z,22.20
2023-05-22T07:44:19.153Z,22.21
2023-05-22T07:46:58.700Z,22.37
2023-05-22T07:49:34.814Z,22.41
2023-05-22T07:52:12.369Z,22.46
2023-05-22T07:54:46.799Z,22.53
2023-05-22T07:57:16.978Z,22.59
2023-05-22T07:59:55.938Z,22.64
2023-05-22T08:02:28.801Z,22.65
2023-05-22T08:04:57.462Z,22.75
2023-05-22T08:07:28.619Z,22.73
2023-05-22T08:10:00.395Z,22.76
2023-05-22T08:12:37.393Z,22.87
2023-05-22T08:15:11.006Z,22.94
2023-05-22T08:17:45.556Z,23.02
2023-05-22T08:20:15.578Z,23.10
2023-05-22T08:25:34.690Z,23.14
2023-05-22T08:28:12.217Z,23.22
2023-05-22T08:30:44.611Z,23.23
2023-05-22T08:33:19.119Z,23.21
2023-05-22T08:35:51.576Z,23.22
2023-05-22T08:38:24.877Z,23.32
2023-05-22T08:41:03.138Z,23.28
2023-05-22T08:43:31.946Z,23.40
2023-05-22T08:46:06.896Z,23.48
2023-05-22T08:48:39.307Z,23.61
2023-05-22T08:51:25.992Z,23.69
2023-05-22T08:53:58.493Z,23.59
2023-05-22T08:56:29.741Z,23.85
2023-05-22T08:59:09.306Z,23.91
2023-05-22T09:01:40.311Z,23.97
2023-05-22T09:04:18.529Z,24.08
2023-05-22T09:06:50.654Z,24.10
2023-05-22T09:09:21.602Z,24.23
2023-05-22T09:11:51.905Z,24.35
2023-05-22T09:14:20.239Z,24.36
2023-05-22T09:16:53.215Z,24.40
2023-05-22T09:19:32.483Z,24.48
2023-05-22T09:22:11.846Z,24.55
2023-05-22T09:24:45.603Z,24.49
2023-05-22T09:27:22.904Z,24.55
2023-05-22T09:29:54.088Z,24.57
2023-05-22T09:32:24.894Z,24.73
2023-05-22T09:35:04.803Z,24.93
2023-05-22T09:37:51.915Z,25.03
2023-05-22T09:40:20.234Z,25.09
2023-05-22T09:42:55.551Z,25.14
2023-05-22T09:45:35.185Z,25.18
2023-05-22T09:48:11.332Z,25.29
2023-05-22T09:50:43.222Z,25.27
2023-05-22T09:53:22.818Z,25.22
2023-05-22T09:56:00.708Z,25.25
2023-05-22T09:58:44.681Z,25.32
2023-05-22T10:01:17.802Z,25.40
2023-05-22T10:03:55.821Z,25.29
2023-05-22T10:06:34.065Z,25.46
2023-05-22T10:09:05.428Z,25.67
2023-05-22T10:11:40.443Z,25.91
2023-05-22T10:14:14.636Z,26.07
2023-05-22T10:16:55.486Z,26.22
2023-05-22T10:19:27.906Z,26.35
2023-05-22T10:22:01.974Z,26.40
2023-05-22T10:24:33.237Z,26.49
2023-05-22T10:27:07.224Z,26.57
2023-05-22T10:29:45.056Z,26.61
2023-05-22T10:32:31.374Z,26.63
2023-05-22T10:35:15.510Z,26.92
2023-05-22T10:37:59.756Z,26.84
2023-05-22T10:40:42.501Z,26.88
2023-05-22T10:43:12.776Z,26.86
2023-05-22T10:45:45.410Z,27.18
2023-05-22T10:48:28.895Z,27.38
2023-05-22T10:51:00.001Z,27.50
2023-05-22T10:53:42.023Z,27.18
2023-05-22T10:56:19.948Z,27.46
2023-05-22T10:59:05.758Z,27.73
2023-05-22T11:01:46.032Z,27.83
2023-05-22T11:04:29.487Z,28.06
2023-05-22T11:07:05.449Z,27.98
2023-05-22T11:09:48.343Z,28.10
2023-05-22T11:12:35.529Z,28.07
2023-05-22T11:15:09.684Z,28.20
2023-05-22T11:17:51.274Z,28.26
2023-05-22T11:20:25.552Z,28.40
2023-05-22T11:22:59.811Z,28.20
2023-05-22T11:25:31.059Z,28.40
2023-05-22T11:28:07.514Z,28.62
2023-05-22T11:30:39.402Z,28.67
2023-05-22T11:33:09.940Z,28.76
2023-05-22T11:35:43.501Z,28.84
2023-05-22T11:38:13.027Z,28.99
2023-05-22T11:40:45.219Z,28.97
2023-05-22T11:43:18.745Z,28.91
2023-05-22T11:45:50.320Z,28.71
2023-05-22T11:48:28.670Z,28.73
2023-05-22T11:51:02.843Z,29.02
2023-05-22T11:53:36.355Z,29.00
2023-05-22T11:56:09.500Z,29.30
2023-05-22T11:58:52.368Z,29.30
2023-05-22T12:01:26.518Z,29.51
2023-05-22T12:03:56.335Z,29.63
2023-05-22T12:06:33.346Z,29.77
2023-05-22T12:09:02.850Z,29.79
2023-05-22T12:11:38.165Z,29.81
2023-05-22T12:14:17.838Z,29.87
2023-05-22T12:16:55.173Z,30.03
2023-05-22T12:19:26.012Z,30.11
2023-05-22T12:21:58.887Z,30.29
2023-05-22T12:24:27.153Z,30.22
2023-05-22T12:27:08.473Z,30.29
2023-05-22T12:29:45.370Z,30.44
2023-05-22T12:32:20.389Z,30.57
2023-05-22T12:34:58.234Z,30.66
2023-05-22T12:37:41.033Z,30.52
2023-05-22T12:40:18.611Z,30.29
2023-05-22T12:42:52.969Z,30.75
2023-05-22T12:45:33.341Z,30.83
2023-05-22T12:48:03.406Z,30.63
2023-05-22T12:50:34.401Z,30.95
2023-05-22T12:53:11.367Z,30.90
2023-05-22T12:55:41.394Z,30.68
2023-05-22T12:58:19.693Z,30.87
2023-05-22T13:00:53.855Z,31.25
2023-05-22T13:03:24.757Z,31.36
2023-05-22T13:05:55.616Z,31.15
2023-05-22T13:08:33.018Z,31.43
2023-05-22T13:11:03.978Z,31.72
2023-05-22T13:13:33.620Z,31.70
2023-05-22T13:16:19.667Z,31.56
2023-05-22T13:19:00.701Z,31.32
2023-05-22T13:21:31.568Z,31.71
2023-05-22T13:24:06.881Z,31.91
2023-05-22T13:26:42.625Z,31.59
2023-05-22T13:29:15.777Z,31.94
2023-05-22T13:31:49.216Z,32.27
2023-05-22T13:34:25.139Z,31.41
2023-05-22T13:37:02.451Z,30.63
2023-05-22T13:39:42.488Z,29.80
2023-05-22T13:42:13.509Z,29.47
2023-05-22T13:44:45.160Z,29.70
2023-05-22T13:47:17.483Z,30.63
2023-05-22T13:49:55.487Z,31.36
2023-05-22T13:52:25.967Z,31.84
2023-05-22T13:54:56.241Z,31.79
2023-05-22T13:57:30.072Z,31.87
2023-05-22T13:59:59.322Z,32.34
2023-05-22T14:02:38.005Z,32.49
2023-05-22T14:05:06.804Z,32.83
2023-05-22T14:07:37.410Z,32.81
2023-05-22T14:10:06.682Z,33.39
2023-05-22T14:12:38.305Z,33.64
2023-05-22T14:15:08.758Z,33.70
2023-05-22T14:17:40.741Z,33.81
2023-05-22T14:20:19.630Z,32.95
2023-05-22T14:22:57.749Z,31.63
2023-05-22T14:25:32.834Z,31.07
2023-05-22T14:28:10.267Z,30.99
2023-05-22T14:30:39.804Z,31.88
2023-05-22T14:33:18.071Z,30.86
2023-05-22T14:36:03.779Z,30.48
2023-05-22T14:38:44.407Z,29.68
2023-05-22T14:41:12.429Z,30.62
2023-05-22T14:43:41.725Z,31.21
2023-05-22T14:46:19.590Z,31.58
2023-05-22T14:48:53.365Z,32.25
2023-05-22T14:51:35.990Z,32.87
2023-05-22T14:54:15.748Z,31.95
2023-05-22T14:56:50.304Z,30.75
2023-05-22T14:59:24.372Z,30.32
2023-05-22T15:01:55.811Z,30.12
2023-05-22T15:04:33.376Z,29.64
2023-05-22T15:07:07.227Z,29.41
2023-05-22T15:09:38.875Z,29.17
2023-05-22T15:12:08.041Z,29.05
2023-05-22T15:14:50.272Z,29.03
2023-05-22T15:17:22.295Z,29.00
2023-05-22T15:19:51.995Z,29.00
2023-05-22T15:22:22.705Z,30.22
2023-05-22T15:25:08.009Z,30.81
2023-05-22T15:27:40.736Z,31.38
2023-05-22T15:30:22.177Z,32.10
2023-05-22T15:32:55.718Z,32.57
2023-05-22T15:35:39.888Z,33.13
2023-05-22T15:38:18.912Z,33.52
2023-05-22T15:40:50.467Z,33.78
2023-05-22T15:43:20.332Z,33.58
2023-05-22T15:45:52.364Z,33.90
2023-05-22T15:48:21.239Z,33.88
2023-05-22T15:50:53.450Z,34.01
2023-05-22T15:53:23.928Z,34.30
2023-05-22T15:55:52.422Z,34.34
2023-05-22T15:58:40.008Z,34.13
2023-05-22T16:01:12.413Z,34.25
2023-05-22T16:03:46.354Z,33.96
2023-05-22T16:06:24.470Z,34.17
2023-05-22T16:08:53.732Z,34.27
2023-05-22T16:11:31.347Z,34.15
2023-05-22T16:14:05.607Z,34.32
2023-05-22T16:16:39.557Z,34.31
2023-05-22T16:19:11.941Z,34.49
2023-05-22T16:21:52.331Z,34.07
2023-05-22T16:24:21.018Z,33.62
2023-05-22T16:29:40.178Z,33.84
2023-05-22T16:32:10.940Z,33.69
2023-05-22T16:34:48.114Z,33.52
2023-05-22T16:37:22.291Z,33.28
2023-05-22T16:39:52.481Z,33.15
2023-05-22T16:42:23.915Z,32.97
2023-05-22T16:45:00.826Z,33.26
2023-05-22T16:47:33.391Z,33.24
2023-05-22T16:50:06.321Z,32.86
2023-05-22T16:52:38.790Z,32.72
2023-05-22T16:55:09.536Z,32.61
2023-05-22T16:57:42.227Z,32.61
2023-05-22T17:00:14.957Z,32.59
2023-05-22T17:02:47.315Z,32.11
2023-05-22T17:05:17.316Z,32.00
2023-05-22T17:07:55.339Z,32.02
2023-05-22T17:10:30.295Z,31.40
2023-05-22T17:13:03.168Z,31.37
2023-05-22T17:15:47.246Z,31.50
2023-05-22T17:18:25.851Z,31.62
2023-05-22T17:20:58.592Z,31.29
2023-05-22T17:23:33.540Z,30.78
2023-05-22T17:26:07.774Z,30.39
2023-05-22T17:28:38.659Z,30.19
2023-05-22T17:31:13.705Z,29.87
2023-05-22T17:33:50.448Z,29.71
2023-05-22T17:36:21.476Z,29.63
2023-05-22T17:39:01.737Z,29.49
2023-05-22T17:41:39.605Z,29.25
2023-05-22T17:44:12.596Z,28.93
2023-05-22T17:46:57.380Z,28.71
2023-05-22T17:49:28.731Z,28.42
2023-05-22T17:52:06.325Z,28.26
2023-05-22T17:54:42.464Z,27.85
2023-05-22T17:57:16.461Z,27.75
2023-05-22T17:59:54.334Z,27.71
2023-05-22T18:02:24.182Z,27.44
2023-05-22T18:04:58.868Z,27.41
2023-05-22T18:07:28.817Z,27.01
2023-05-22T18:10:06.944Z,27.13
2023-05-22T18:12:46.521Z,27.09
2023-05-22T18:15:30.644Z,27.05
2023-05-22T18:18:05.144Z,26.88
2023-05-22T18:20:40.616Z,26.80
2023-05-22T18:23:15.311Z,26.67
2023-05-22T18:25:56.762Z,26.55
2023-05-22T18:28:34.629Z,26.49
2023-05-22T18:31:19.273Z,26.37
2023-05-22T18:33:52.083Z,26.28
2023-05-22T18:36:22.783Z,26.16
2023-05-22T18:39:04.912Z,26.06
2023-05-22T18:41:45.268Z,26.02
2023-05-22T18:44:25.240Z,25.81
2023-05-22T18:46:57.804Z,25.94
2023-05-22T18:49:27.320Z,25.88
2023-05-22T18:52:13.873Z,25.73
2023-05-22T18:54:45.869Z,25.67
2023-05-22T18:57:30.927Z,25.59
2023-05-22T19:00:21.872Z,25.48
2023-05-22T19:03:04.386Z,25.43
2023-05-22T19:05:33.908Z,25.44
2023-05-22T19:08:05.130Z,25.38
2023-05-22T19:10:36.582Z,25.32
2023-05-22T19:13:11.975Z,25.31
2023-05-22T19:15:44.009Z,25.13
2023-05-22T19:18:14.765Z,25.04
2023-05-22T19:20:49.658Z,24.99
2023-05-22T19:23:22.516Z,24.98
2023-05-22T19:25:58.704Z,24.96
2023-05-22T19:28:33.960Z,25.07
2023-05-22T19:31:10.167Z,24.83
2023-05-22T19:33:50.238Z,24.74
2023-05-22T19:36:23.785Z,24.80
2023-05-22T19:38:55.764Z,24.77
2023-05-22T19:41:29.902Z,24.64
2023-05-22T19:44:08.708Z,24.74
2023-05-22T19:46:39.581Z,24.55
2023-05-22T19:49:10.512Z,24.62
2023-05-22T19:51:42.723Z,24.56
2023-05-22T19:54:13.678Z,24.53
2023-05-22T19:56:45.374Z,24.37
2023-05-22T19:59:20.930Z,24.39
2023-05-22T20:01:53.408Z,24.56
2023-05-22T20:04:31.097Z,24.30
2023-05-22T20:07:05.337Z,24.28
2023-05-22T20:09:40.763Z,24.10
2023-05-22T20:12:16.903Z,24.08
2023-05-22T20:14:59.057Z,24.07
2023-05-22T20:17:31.554Z,24.12
2023-05-22T20:20:10.959Z,24.04
2023-05-22T20:22:42.841Z,23.93
2023-05-22T20:25:20.336Z,23.94
2023-05-22T20:27:51.053Z,23.84
2023-05-22T20:30:34.222Z,23.75
2023-05-22T20:33:04.714Z,23.68
2023-05-22T20:35:41.350Z,23.69
2023-05-22T20:38:15.594Z,23.75
2023-05-22T20:40:47.001Z,23.63
2023-05-22T20:43:19.000Z,23.75
2023-05-22T20:46:01.367Z,23.51
2023-05-22T20:48:31.585Z,23.54
2023-05-22T20:51:01.042Z,23.46
2023-05-22T20:53:38.226Z,23.35
2023-05-22T20:56:12.207Z,23.35
2023-05-22T20:58:48.802Z,23.26
2023-05-22T21:01:20.796Z,23.34
2023-05-22T21:04:01.101Z,23.12
2023-05-22T21:06:33.323Z,23.14
2023-05-22T21:09:04.370Z,22.99
2023-05-22T21:11:38.745Z,22.91
2023-05-22T21:14:11.467Z,23.17
2023-05-22T21:16:50.925Z,23.08
2023-05-22T21:19:28.283Z,22.92
2023-05-22T21:21:59.551Z,22.81
2023-05-22T21:24:35.937Z,22.88
2023-05-22T21:27:05.118Z,22.79
2023-05-22T21:29:35.670Z,22.88
2023-05-22T21:32:13.132Z,22.80
2023-05-22T21:34:44.954Z,22.62
2023-05-22T21:37:19.494Z,22.40
2023-05-22T21:39:51.490Z,22.48
2023-05-22T21:42:34.776Z,22.61
2023-05-22T21:45:15.313Z,22.65
2023-05-22T21:47:57.820Z,22.52
2023-05-22T21:50:27.649Z,22.60
2023-05-22T21:53:04.150Z,22.34
2023-05-22T21:55:36.050Z,22.42
2023-05-22T21:58:13.742Z,22.20
2023-05-22T22:00:46.995Z,22.04
2023-05-22T22:03:23.603Z,22.32
2023-05-22T22:06:03.089Z,22.38
2023-05-22T22:08:31.917Z,22.19
2023-05-22T22:11:00.984Z,22.28
2023-05-22T22:13:28.977Z,22.19
2023-05-22T22:15:59.838Z,22.12
2023-05-22T22:18:33.555Z,22.23
2023-05-22T22:21:05.397Z,22.06
2023-05-22T22:23:36.967Z,22.06
2023-05-22T22:26:17.581Z,22.05
2023-05-22T22:28:47.020Z,22.18
2023-05-22T22:31:17.423Z,22.01
2023-05-22T22:33:59.618Z,21.85
2023-05-22T22:36:31.717Z,21.74
2023-05-22T22:39:02.489Z,21.78
2023-05-22T22:41:34.324Z,21.74
2023-05-22T22:44:05.297Z,21.86
2023-05-22T22:46:36.990Z,21.84
2023-05-22T22:49:09.224Z,21.69
2023-05-22T22:51:39.756Z,21.54
2023-05-22T22:54:13.514Z,21.56
2023-05-22T22:56:52.438Z,21.33
2023-05-22T22:59:24.484Z,21.44
2023-05-22T23:01:56.247Z,21.39
2023-05-22T23:04:28.356Z,21.40
2023-05-22T23:07:05.377Z,21.39
2023-05-22T23:09:41.146Z,21.45
2023-05-22T23:12:14.244Z,21.60
2023-05-22T23:14:48.070Z,21.24
2023-05-22T23:17:19.713Z,21.34
2023-05-22T23:19:49.931Z,21.31
2023-05-22T23:22:20.780Z,21.19
2023-05-22T23:24:54.246Z,21.03
2023-05-22T23:27:31.960Z,20.99
2023-05-22T23:30:05.004Z,21.00
2023-05-22T23:32:41.889Z,21.02
2023-05-22T23:35:14.279Z,20.98
2023-05-22T23:37:43.293Z,20.97
2023-05-22T23:40:13.609Z,20.90
2023-05-22T23:42:45.064Z,21.06
2023-05-22T23:45:19.032Z,21.05
2023-05-22T23:47:49.562Z,20.95
2023-05-22T23:50:24.265Z,21.17
2023-05-22T23:52:53.432Z,20.85
2023-05-22T23:55:24.002Z,20.71
2023-05-22T23:57:54.257Z,20.73
